createdAt,value
2024-04-09T00:01:53.120Z,60.33
2024-04-09T00:04:19.511Z,60.55
2024-04-09T00:06:46.023Z,60.71
2024-04-09T00:09:12.414Z,60.93
2024-04-09T00:11:38.946Z,61.24
2024-04-09T00:14:05.385Z,61.48
2024-04-09T00:16:31.698Z,61.58
2024-04-09T00:18:58.209Z,61.61
2024-04-09T00:21:25.063Z,62.68
2024-04-09T00:23:51.494Z,63.82
2024-04-09T00:26:17.780Z,63.86
2024-04-09T00:28:44.078Z,63.14
2024-04-09T00:31:10.379Z,62.44
2024-04-09T00:33:36.820Z,61.90
2024-04-09T00:36:03.388Z,61.64
2024-04-09T00:38:29.712Z,60.50
2024-04-09T00:40:56.012Z,59.25
2024-04-09T00:43:22.308Z,59.30
2024-04-09T00:45:48.625Z,59.49
2024-04-09T00:48:15.092Z,59.87
2024-04-09T00:50:41.545Z,60.28
2024-04-09T00:53:07.840Z,60.70
2024-04-09T00:55:34.171Z,60.94
2024-04-09T00:58:00.536Z,61.15
2024-04-09T01:00:26.892Z,61.45
2024-04-09T01:02:53.318Z,61.69
2024-04-09T01:05:19.645Z,61.83
2024-04-09T01:07:45.963Z,62.87
2024-04-09T01:10:12.306Z,63.95
2024-04-09T01:12:38.739Z,63.59
2024-04-09T01:15:05.170Z,63.00
2024-04-09T01:17:31.764Z,62.50
2024-04-09T01:19:58.233Z,61.87
2024-04-09T01:22:24.553Z,61.36
2024-04-09T01:24:50.861Z,60.95
2024-04-09T01:27:17.224Z,60.07
2024-04-09T01:29:43.650Z,58.66
2024-04-09T01:32:09.979Z,58.53
2024-04-09T01:34:36.401Z,58.84
2024-04-09T01:37:02.838Z,59.04
2024-04-09T01:39:29.302Z,59.39
2024-04-09T01:41:55.853Z,59.72
2024-04-09T01:44:22.175Z,60.15
2024-04-09T01:46:48.523Z,60.44
2024-04-09T01:49:14.836Z,60.88
2024-04-09T01:51:41.157Z,61.23
2024-04-09T01:54:07.486Z,61.60
2024-04-09T01:56:33.803Z,62.67
2024-04-09T01:59:00.114Z,63.95
2024-04-09T02:01:26.458Z,63.99
2024-04-09T02:03:52.862Z,63.68
2024-04-09T02:06:19.295Z,63.18
2024-04-09T02:08:45.736Z,62.68
2024-04-09T02:11:12.101Z,62.23
2024-04-09T02:13:38.429Z,62.06
2024-04-09T02:16:04.849Z,61.78
2024-04-09T02:18:31.166Z,61.54
2024-04-09T02:20:57.522Z,61.19
2024-04-09T02:23:23.870Z,60.95
2024-04-09T02:25:50.170Z,60.08
2024-04-09T02:28:16.491Z,59.01
2024-04-09T02:30:42.930Z,59.09
2024-04-09T02:33:09.470Z,59.48
2024-04-09T02:35:35.956Z,59.96
2024-04-09T02:38:02.298Z,60.40
2024-04-09T02:40:28.609Z,60.69
2024-04-09T02:42:54.941Z,61.01
2024-04-09T02:45:21.327Z,61.55
2024-04-09T02:47:47.669Z,62.47
2024-04-09T02:50:14.014Z,63.76
2024-04-09T02:52:40.326Z,63.83
2024-04-09T02:55:06.636Z,63.49
2024-04-09T02:57:32.972Z,63.21
2024-04-09T02:59:59.373Z,63.16
2024-04-09T03:02:25.733Z,63.28
2024-04-09T03:04:52.081Z,63.11
2024-04-09T03:07:18.394Z,62.86
2024-04-09T03:09:44.781Z,62.65
2024-04-09T03:12:11.139Z,62.59
2024-04-09T03:14:37.452Z,62.34
2024-04-09T03:17:03.749Z,62.13
2024-04-09T03:19:30.056Z,62.05
2024-04-09T03:21:56.377Z,61.73
2024-04-09T03:24:22.758Z,61.21
2024-04-09T03:26:49.058Z,61.08
2024-04-09T03:29:15.380Z,61.15
2024-04-09T03:31:41.676Z,60.91
2024-04-09T03:34:08.138Z,60.85
2024-04-09T03:36:34.627Z,60.61
2024-04-09T03:39:01.212Z,59.58
2024-04-09T03:41:27.593Z,58.39
2024-04-09T03:43:53.890Z,58.56
2024-04-09T03:46:20.181Z,59.07
2024-04-09T03:48:46.829Z,59.59
2024-04-09T03:51:13.554Z,60.09
2024-04-09T03:53:39.969Z,60.74
2024-04-09T03:56:06.287Z,61.90
2024-04-09T03:58:32.683Z,63.35
2024-04-09T04:00:59.166Z,63.46
2024-04-09T04:03:25.688Z,63.14
2024-04-09T04:05:52.042Z,62.76
2024-04-09T04:08:18.352Z,62.42
2024-04-09T04:10:44.688Z,62.18
2024-04-09T04:13:10.994Z,61.92
2024-04-09T04:15:39.228Z,61.76
2024-04-09T04:18:07.251Z,61.51
2024-04-09T04:20:33.717Z,61.01
2024-04-09T04:23:00.052Z,60.98
2024-04-09T04:25:26.370Z,61.17
2024-04-09T04:27:52.682Z,61.05
2024-04-09T04:30:18.997Z,60.90
2024-04-09T04:32:45.365Z,60.96
2024-04-09T04:35:11.700Z,60.92
2024-04-09T04:37:38.011Z,60.74
2024-04-09T04:40:04.342Z,60.67
2024-04-09T04:42:30.705Z,60.67
2024-04-09T04:44:57.091Z,60.40
2024-04-09T04:47:23.562Z,60.31
2024-04-09T04:49:50.230Z,60.47
2024-04-09T04:52:16.720Z,60.35
2024-04-09T04:54:43.065Z,60.16
2024-04-09T04:57:09.498Z,59.39
2024-04-09T04:59:35.833Z,58.74
2024-04-09T05:02:02.236Z,59.14
2024-04-09T05:04:28.616Z,59.79
2024-04-09T05:06:54.997Z,60.35
2024-04-09T05:09:21.463Z,60.95
2024-04-09T05:11:47.848Z,62.09
2024-04-09T05:14:14.179Z,63.39
2024-04-09T05:16:40.503Z,63.53
2024-04-09T05:19:06.964Z,63.09
2024-04-09T05:21:33.471Z,62.86
2024-04-09T05:23:59.851Z,62.42
2024-04-09T05:26:26.178Z,62.17
2024-04-09T05:28:52.491Z,62.03
2024-04-09T05:31:18.817Z,61.78
2024-04-09T05:33:45.161Z,61.67
2024-04-09T05:36:11.538Z,61.15
2024-04-09T05:38:38.499Z,61.01
2024-04-09T05:41:05.066Z,60.92
2024-04-09T05:43:31.384Z,60.77
2024-04-09T05:45:57.777Z,60.60
2024-04-09T05:48:24.283Z,60.44
2024-04-09T05:50:50.764Z,60.42
2024-04-09T05:53:17.083Z,60.12
2024-04-09T05:55:43.392Z,60.12
2024-04-09T05:58:09.698Z,59.30
2024-04-09T06:00:36.196Z,58.45
2024-04-09T06:03:02.678Z,58.72
2024-04-09T06:05:29.030Z,59.33
2024-04-09T06:07:55.396Z,59.81
2024-04-09T06:10:21.716Z,60.37
2024-04-09T06:12:48.297Z,60.88
2024-04-09T06:15:14.826Z,62.17
2024-04-09T06:17:41.353Z,63.28
2024-04-09T06:20:07.951Z,63.32
2024-04-09T06:22:34.396Z,62.77
2024-04-09T06:25:00.695Z,62.31
2024-04-09T06:27:27.015Z,62.02
2024-04-09T06:29:53.421Z,61.50
2024-04-09T06:32:19.757Z,61.13
2024-04-09T06:34:46.109Z,60.89
2024-04-09T06:37:12.469Z,60.63
2024-04-09T06:39:39.032Z,60.23
2024-04-09T06:42:05.597Z,59.09
2024-04-09T06:44:31.986Z,58.30
2024-04-09T06:46:58.303Z,58.37
2024-04-09T06:49:24.805Z,59.01
2024-04-09T06:51:51.270Z,59.46
2024-04-09T06:54:17.661Z,59.73
2024-04-09T06:56:43.989Z,60.19
2024-04-09T06:59:10.285Z,60.63
2024-04-09T07:01:36.739Z,61.23
2024-04-09T07:04:03.298Z,61.00
2024-04-09T07:06:29.725Z,61.40
2024-04-09T07:08:56.118Z,62.26
2024-04-09T07:11:22.497Z,63.05
2024-04-09T07:13:48.951Z,62.66
2024-04-09T07:16:15.254Z,62.01
2024-04-09T07:18:41.640Z,61.43
2024-04-09T07:21:07.984Z,60.99
2024-04-09T07:23:34.312Z,60.41
2024-04-09T07:26:00.651Z,59.53
2024-04-09T07:28:26.957Z,58.33
2024-04-09T07:30:53.370Z,58.66
2024-04-09T07:33:19.818Z,59.18
2024-04-09T07:35:46.255Z,59.05
2024-04-09T07:38:12.568Z,59.23
2024-04-09T07:40:38.864Z,59.39
2024-04-09T07:43:05.170Z,59.52
2024-04-09T07:45:31.530Z,60.18
2024-04-09T07:47:57.917Z,60.00
2024-04-09T07:50:24.268Z,59.93
2024-04-09T07:52:50.584Z,59.71
2024-04-09T07:55:16.907Z,59.60
2024-04-09T07:57:43.340Z,59.88
2024-04-09T08:00:09.869Z,59.81
2024-04-09T08:02:36.257Z,60.30
2024-04-09T08:05:02.952Z,60.19
2024-04-09T08:07:29.634Z,60.08
2024-04-09T08:09:56.114Z,60.09
2024-04-09T08:12:22.670Z,60.05
2024-04-09T08:14:49.270Z,59.89
2024-04-09T08:17:15.652Z,59.99
2024-04-09T08:19:42.074Z,59.94
2024-04-09T08:22:08.563Z,59.51
2024-04-09T08:24:34.995Z,59.46
2024-04-09T08:27:01.397Z,59.40
2024-04-09T08:29:27.734Z,59.26
2024-04-09T08:31:54.171Z,58.94
2024-04-09T08:34:20.737Z,59.05
2024-04-09T08:36:47.361Z,59.03
2024-04-09T08:39:14.054Z,58.68
2024-04-09T08:41:40.687Z,58.71
2024-04-09T08:44:07.123Z,58.68
2024-04-09T08:46:33.871Z,58.64
2024-04-09T08:49:00.626Z,58.40
2024-04-09T08:51:27.258Z,57.99
2024-04-09T08:53:53.804Z,58.13
2024-04-09T08:56:20.111Z,58.11
2024-04-09T08:58:46.410Z,58.11
2024-04-09T09:01:12.763Z,57.93
2024-04-09T09:03:39.260Z,57.33
2024-04-09T09:06:05.897Z,57.19
2024-04-09T09:08:32.393Z,56.85
2024-04-09T09:10:58.752Z,56.81
2024-04-09T09:13:25.120Z,56.77
2024-04-09T09:15:51.609Z,56.39
2024-04-09T09:18:18.115Z,56.32
2024-04-09T09:20:44.555Z,55.97
2024-04-09T09:23:10.911Z,55.98
2024-04-09T09:25:37.238Z,55.91
2024-04-09T09:28:03.590Z,55.56
2024-04-09T09:30:29.920Z,55.47
2024-04-09T09:32:56.303Z,55.31
2024-04-09T09:35:22.630Z,55.36
2024-04-09T09:37:48.925Z,55.23
2024-04-09T09:40:15.297Z,54.95
2024-04-09T09:42:41.729Z,54.48
2024-04-09T09:45:08.254Z,54.08
2024-04-09T09:47:34.726Z,53.94
2024-04-09T09:50:10.298Z,53.75
2024-04-09T09:52:40.168Z,53.91
2024-04-09T09:55:10.052Z,53.72
2024-04-09T09:57:36.902Z,53.80
2024-04-09T10:00:03.359Z,53.63
2024-04-09T10:02:29.713Z,53.69
2024-04-09T10:04:56.170Z,53.53
2024-04-09T10:07:22.556Z,52.89
2024-04-09T10:09:49.013Z,52.45
2024-04-09T10:12:16.497Z,52.52
2024-04-09T10:14:43.005Z,51.97
2024-04-09T10:17:09.403Z,52.20
2024-04-09T10:19:35.941Z,52.25
2024-04-09T10:22:02.362Z,52.70
2024-04-09T10:24:28.766Z,52.68
2024-04-09T10:26:55.252Z,52.62
2024-04-09T10:29:21.560Z,52.50
2024-04-09T10:31:47.881Z,52.33
2024-04-09T10:34:14.341Z,52.24
2024-04-09T10:36:40.805Z,52.41
2024-04-09T10:39:07.175Z,52.27
2024-04-09T10:41:33.518Z,51.93
2024-04-09T10:43:59.822Z,51.45
2024-04-09T10:46:26.234Z,51.32
2024-04-09T10:48:52.675Z,51.45
2024-04-09T10:51:20.903Z,51.41
2024-04-09T10:53:48.991Z,51.07
2024-04-09T10:56:15.314Z,50.92
2024-04-09T10:58:42.021Z,50.79
2024-04-09T11:01:08.636Z,50.57
2024-04-09T11:03:35.591Z,50.42
2024-04-09T11:06:02.318Z,50.24
2024-04-09T11:08:28.710Z,49.97
2024-04-09T11:10:55.056Z,49.83
2024-04-09T11:13:21.379Z,49.79
2024-04-09T11:15:47.783Z,49.82
2024-04-09T11:18:14.313Z,49.90
2024-04-09T11:20:40.675Z,49.78
2024-04-09T11:23:07.002Z,49.55
2024-04-09T11:25:33.332Z,49.53
2024-04-09T11:27:59.633Z,49.62
2024-04-09T11:30:26.060Z,49.68
2024-04-09T11:32:52.640Z,49.64
2024-04-09T11:35:19.132Z,49.15
2024-04-09T11:37:45.457Z,48.92
2024-04-09T11:40:11.803Z,48.85
2024-04-09T11:42:38.223Z,48.51
2024-04-09T11:45:04.757Z,47.91
2024-04-09T11:47:31.247Z,47.82
2024-04-09T11:49:57.598Z,47.68
2024-04-09T11:52:23.902Z,47.77
2024-04-09T11:54:50.297Z,47.86
2024-04-09T11:57:16.703Z,47.83
2024-04-09T11:59:43.020Z,47.71
2024-04-09T12:02:09.350Z,47.60
2024-04-09T12:04:35.799Z,47.54
2024-04-09T12:07:02.312Z,47.36
2024-04-09T12:09:28.813Z,47.24
2024-04-09T12:11:55.146Z,47.08
2024-04-09T12:14:21.495Z,47.06
2024-04-09T12:16:47.789Z,47.09
2024-04-09T12:19:14.385Z,47.17
2024-04-09T12:21:41.098Z,47.21
2024-04-09T12:24:07.612Z,47.33
2024-04-09T12:26:33.962Z,47.21
2024-04-09T12:29:00.275Z,47.04
2024-04-09T12:31:26.620Z,46.92
2024-04-09T12:33:53.043Z,46.88
2024-04-09T12:36:19.544Z,46.78
2024-04-09T12:38:45.870Z,46.88
2024-04-09T12:41:12.205Z,46.64
2024-04-09T12:43:38.507Z,46.18
2024-04-09T12:46:04.827Z,46.04
2024-04-09T12:48:31.280Z,46.17
2024-04-09T12:50:57.799Z,46.18
2024-04-09T12:53:24.126Z,46.09
2024-04-09T12:55:50.462Z,46.17
2024-04-09T12:58:16.792Z,46.07
2024-04-09T13:01:01.514Z,46.15
2024-04-09T13:03:29.477Z,46.04
2024-04-09T13:05:56.195Z,45.93
2024-04-09T13:08:22.737Z,45.77
2024-04-09T13:10:49.068Z,45.70
2024-04-09T13:13:15.418Z,45.91
2024-04-09T13:18:11.188Z,45.12
2024-04-09T13:20:37.626Z,44.84
2024-04-09T13:23:06.194Z,44.75
2024-04-09T13:25:33.727Z,44.57
2024-04-09T13:28:00.054Z,44.50
2024-04-09T13:30:26.372Z,44.72
2024-04-09T13:32:52.815Z,44.42
2024-04-09T13:35:19.342Z,43.78
2024-04-09T13:37:45.699Z,43.64
2024-04-09T13:40:12.055Z,43.68
2024-04-09T13:42:38.387Z,43.62
2024-04-09T13:45:04.803Z,43.48
2024-04-09T13:47:31.411Z,43.59
2024-04-09T13:49:57.890Z,43.39
2024-04-09T13:52:24.228Z,43.17
2024-04-09T13:54:50.533Z,43.14
2024-04-09T13:57:16.855Z,42.87
2024-04-09T13:59:43.165Z,43.02
2024-04-09T14:02:09.574Z,43.10
2024-04-09T14:04:35.985Z,42.84
2024-04-09T14:07:02.336Z,42.64
2024-04-09T14:09:28.654Z,42.65
2024-04-09T14:11:55.511Z,42.55
2024-04-09T14:14:22.641Z,42.18
2024-04-09T14:16:49.138Z,42.24
2024-04-09T14:19:15.551Z,42.03
2024-04-09T14:21:42.002Z,42.07
2024-04-09T14:24:08.343Z,42.10
2024-04-09T14:26:34.765Z,42.27
2024-04-09T14:29:01.226Z,42.42
2024-04-09T14:31:27.570Z,42.51
2024-04-09T14:33:53.926Z,42.48
2024-04-09T14:36:20.264Z,42.16
2024-04-09T14:38:46.593Z,41.90
2024-04-09T14:41:16.038Z,41.71
2024-04-09T14:43:43.179Z,41.61
2024-04-09T14:46:09.529Z,41.78
2024-04-09T14:48:36.030Z,41.36
2024-04-09T14:51:02.614Z,41.20
2024-04-09T14:53:28.953Z,41.15
2024-04-09T14:55:55.339Z,41.03
2024-04-09T14:58:21.645Z,41.14
2024-04-09T15:00:47.963Z,41.26
2024-04-09T15:03:14.405Z,41.42
2024-04-09T15:05:40.962Z,41.44
2024-04-09T15:08:08.206Z,41.37
2024-04-09T15:10:35.037Z,41.19
2024-04-09T15:13:01.354Z,41.01
2024-04-09T15:15:27.716Z,41.13
2024-04-09T15:17:54.105Z,41.38
2024-04-09T15:20:20.672Z,41.63
2024-04-09T15:22:47.054Z,41.57
2024-04-09T15:25:15.652Z,41.14
2024-04-09T15:27:43.555Z,40.94
2024-04-09T15:30:09.994Z,40.90
2024-04-09T15:32:37.753Z,40.87
2024-04-09T15:35:06.483Z,41.00
2024-04-09T15:37:32.832Z,41.40
2024-04-09T15:39:59.270Z,41.35
2024-04-09T15:42:25.608Z,41.31
2024-04-09T15:44:51.988Z,41.55
2024-04-09T15:47:18.424Z,41.46
2024-04-09T15:49:44.851Z,41.48
2024-04-09T15:52:11.171Z,41.38
2024-04-09T15:54:37.614Z,41.61
2024-04-09T15:57:03.975Z,41.35
2024-04-09T15:59:30.419Z,41.48
2024-04-09T16:01:56.943Z,41.33
2024-04-09T16:04:23.368Z,41.36
2024-04-09T16:06:49.681Z,40.88
2024-04-09T16:09:16.003Z,41.04
2024-04-09T16:11:42.582Z,41.06
2024-04-09T16:14:09.032Z,41.12
2024-04-09T16:16:35.493Z,41.19
2024-04-09T16:19:02.143Z,41.30
2024-04-09T16:21:28.654Z,41.58
2024-04-09T16:23:54.998Z,41.56
2024-04-09T16:26:21.367Z,41.89
2024-04-09T16:28:47.787Z,42.18
2024-04-09T16:31:14.205Z,42.46
2024-04-09T16:33:40.872Z,42.91
2024-04-09T16:36:07.385Z,43.20
2024-04-09T16:38:33.811Z,43.36
2024-04-09T16:41:00.359Z,43.49
2024-04-09T16:43:26.787Z,43.70
2024-04-09T16:45:53.104Z,43.95
2024-04-09T16:48:19.655Z,44.29
2024-04-09T16:50:46.953Z,44.40
2024-04-09T16:53:13.587Z,44.53
2024-04-09T16:55:39.968Z,44.73
2024-04-09T16:58:06.319Z,44.79
2024-04-09T17:00:32.713Z,45.00
2024-04-09T17:02:59.117Z,45.15
2024-04-09T17:05:25.496Z,45.36
2024-04-09T17:07:51.889Z,45.50
2024-04-09T17:10:18.243Z,45.61
2024-04-09T17:12:44.572Z,45.77
2024-04-09T17:15:10.895Z,45.89
2024-04-09T17:17:37.376Z,46.07
2024-04-09T17:20:04.084Z,46.15
2024-04-09T17:22:30.487Z,46.28
2024-04-09T17:24:56.782Z,46.41
2024-04-09T17:27:23.121Z,46.54
2024-04-09T17:29:49.445Z,46.59
2024-04-09T17:32:15.870Z,46.76
2024-04-09T17:34:42.240Z,46.95
2024-04-09T17:37:08.675Z,47.02
2024-04-09T17:39:35.004Z,47.10
2024-04-09T17:42:01.325Z,47.34
2024-04-09T17:44:27.697Z,47.48
2024-04-09T17:46:54.074Z,47.71
2024-04-09T17:49:20.516Z,47.92
2024-04-09T17:51:46.991Z,48.12
2024-04-09T17:54:13.305Z,48.31
2024-04-09T17:56:39.676Z,48.44
2024-04-09T17:59:06.057Z,48.60
2024-04-09T18:01:32.545Z,48.79
2024-04-09T18:03:59.235Z,49.06
2024-04-09T18:06:25.651Z,49.33
2024-04-09T18:08:51.967Z,49.55
2024-04-09T18:11:18.347Z,49.83
2024-04-09T18:13:44.799Z,50.13
2024-04-09T18:16:11.183Z,50.56
2024-04-09T18:18:37.573Z,50.81
2024-04-09T18:21:04.050Z,51.12
2024-04-09T18:23:30.473Z,51.39
2024-04-09T18:25:56.832Z,51.61
2024-04-09T18:28:23.163Z,51.94
2024-04-09T18:30:49.483Z,52.07
2024-04-09T18:33:15.872Z,52.20
2024-04-09T18:35:42.357Z,52.44
2024-04-09T18:38:08.688Z,52.75
2024-04-09T18:40:35.022Z,53.01
2024-04-09T18:43:01.320Z,53.05
2024-04-09T18:45:27.654Z,53.29
2024-04-09T18:47:54.177Z,53.27
2024-04-09T18:50:20.682Z,53.49
2024-04-09T18:52:47.116Z,53.80
2024-04-09T18:55:13.759Z,54.00
2024-04-09T18:57:40.217Z,54.50
2024-04-09T19:00:06.527Z,54.69
2024-04-09T19:02:33.004Z,54.69
2024-04-09T19:04:59.550Z,55.05
2024-04-09T19:07:25.870Z,55.24
2024-04-09T19:09:52.198Z,55.39
2024-04-09T19:12:18.612Z,55.40
2024-04-09T19:14:44.948Z,55.69
2024-04-09T19:17:11.342Z,55.57
2024-04-09T19:19:37.705Z,55.90
2024-04-09T19:22:04.023Z,56.04
2024-04-09T19:24:30.337Z,56.41
2024-04-09T19:26:56.644Z,56.32
2024-04-09T19:29:23.013Z,56.60
2024-04-09T19:31:49.686Z,57.01
2024-04-09T19:34:16.423Z,56.97
2024-04-09T19:36:42.914Z,57.07
2024-04-09T19:39:09.215Z,57.60
2024-04-09T19:41:36.769Z,57.72
2024-04-09T19:44:13.339Z,57.88
2024-04-09T19:46:44.241Z,57.87
2024-04-09T19:49:10.651Z,58.18
2024-04-09T19:51:36.990Z,58.39
2024-04-09T19:54:03.349Z,58.66
2024-04-09T19:56:29.789Z,58.74
2024-04-09T19:58:56.413Z,58.85
2024-04-09T20:01:22.830Z,59.10
2024-04-09T20:03:49.318Z,59.44
2024-04-09T20:06:15.812Z,59.20
2024-04-09T20:08:42.122Z,59.60
2024-04-09T20:11:08.576Z,59.92
2024-04-09T20:13:34.973Z,59.99
2024-04-09T20:16:01.277Z,60.02
2024-04-09T20:18:28.002Z,60.08
2024-04-09T20:20:54.527Z,60.14
2024-04-09T20:23:21.207Z,60.27
2024-04-09T20:25:47.786Z,60.20
2024-04-09T20:28:14.102Z,60.27
2024-04-09T20:30:40.432Z,60.36
2024-04-09T20:33:07.058Z,60.39
2024-04-09T20:35:40.310Z,60.52
2024-04-09T20:38:10.727Z,60.45
2024-04-09T20:40:37.089Z,60.42
2024-04-09T20:43:03.438Z,60.21
2024-04-09T20:45:29.766Z,60.33
2024-04-09T20:47:56.338Z,60.64
2024-04-09T20:50:22.939Z,60.57
2024-04-09T20:52:49.336Z,60.53
2024-04-09T20:55:15.652Z,60.80
2024-04-09T20:57:41.944Z,60.80
2024-04-09T21:00:08.256Z,61.07
2024-04-09T21:02:34.647Z,60.73
2024-04-09T21:05:01.200Z,60.71
2024-04-09T21:07:27.610Z,60.81
2024-04-09T21:09:53.933Z,60.92
2024-04-09T21:12:20.753Z,60.79
2024-04-09T21:14:47.153Z,60.53
2024-04-09T21:17:13.647Z,60.41
2024-04-09T21:19:40.020Z,60.49
2024-04-09T21:22:06.323Z,60.43
2024-04-09T21:24:32.683Z,60.42
2024-04-09T21:26:59.006Z,60.40
2024-04-09T21:29:25.460Z,60.33
2024-04-09T21:31:51.908Z,60.39
2024-04-09T21:34:18.303Z,60.44
2024-04-09T21:36:44.742Z,60.48
2024-04-09T21:39:11.065Z,60.42
2024-04-09T21:41:37.383Z,60.43
2024-04-09T21:44:03.795Z,60.39
2024-04-09T21:46:30.118Z,60.34
2024-04-09T21:48:56.621Z,60.26
2024-04-09T21:51:23.015Z,60.19
2024-04-09T21:53:49.363Z,60.15
2024-04-09T21:56:15.728Z,60.16
2024-04-09T21:58:42.061Z,60.19
2024-04-09T22:01:08.453Z,60.13
2024-04-09T22:03:34.912Z,60.10
2024-04-09T22:06:01.326Z,60.12
2024-04-09T22:08:27.828Z,60.20
2024-04-09T22:10:54.463Z,60.14
2024-04-09T22:13:20.912Z,60.11
2024-04-09T22:15:47.221Z,60.24
2024-04-09T22:18:13.720Z,60.32
2024-04-09T22:20:40.308Z,60.33
2024-04-09T22:23:06.783Z,60.32
2024-04-09T22:25:33.124Z,60.37
2024-04-09T22:27:59.450Z,60.35
2024-04-09T22:30:25.844Z,60.39
2024-04-09T22:32:52.507Z,60.40
2024-04-09T22:35:19.064Z,60.44
2024-04-09T22:37:45.558Z,60.54
2024-04-09T22:40:11.899Z,60.58
2024-04-09T22:42:38.271Z,60.64
2024-04-09T22:45:04.582Z,60.59
2024-04-09T22:47:31.193Z,60.97
2024-04-09T22:49:57.681Z,61.45
2024-04-09T22:52:24.040Z,61.57
2024-04-09T22:54:50.377Z,61.73
2024-04-09T22:57:16.707Z,61.78
2024-04-09T22:59:43.025Z,61.87
2024-04-09T23:02:09.449Z,61.89
2024-04-09T23:04:36.098Z,61.91
2024-04-09T23:07:02.427Z,62.09
2024-04-09T23:09:28.755Z,62.90
2024-04-09T23:11:55.193Z,64.08
2024-04-09T23:14:21.704Z,63.47
2024-04-09T23:16:48.181Z,63.00
2024-04-09T23:19:14.595Z,62.56
2024-04-09T23:21:40.933Z,61.17
2024-04-09T23:24:07.234Z,60.23
2024-04-09T23:26:33.645Z,58.83
2024-04-09T23:28:59.991Z,58.54
2024-04-09T23:31:26.304Z,58.81
2024-04-09T23:33:52.774Z,59.11
2024-04-09T23:36:19.198Z,59.30
2024-04-09T23:38:45.502Z,59.40
2024-04-09T23:41:11.856Z,59.56
2024-04-09T23:43:38.167Z,59.69
2024-04-09T23:46:04.503Z,59.95
2024-04-09T23:48:30.935Z,60.22
2024-04-09T23:50:57.390Z,60.48
2024-04-09T23:53:23.734Z,60.56
2024-04-09T23:55:50.085Z,60.77
2024-04-09T23:58:16.414Z,60.97
